Nowata, Oklahoma
Current Conditions -  °F | °C
As of 8:53 PM on Wednesday 22 Oct 2014 (Local Time) from KBVO Reporting Station
Clear Clear  
Wind Chill: 66°   Ceiling: Unl
Heat Index: 66°   Visibility: 10mi
Dew Point: 58°   Wind: 5mph
Humidity: 75%   Direction: 170°S
Pressure: 30.1"   Gusts: NA
Location:  36.7°N, 95.64°W
Report Text: KBVO 230153Z AUTO 17004KT 10SM CLR 19/14 A3010 RMK AO2 SLP186 T01890144
Loading
Personal Weather Stations






























Interactive Weather Map
Tropical Storm Tracking
New forecast layout! Learn more

10-Day Weather Forecast

Advertisements
Track Severe Weather on mobile